Vyacheslav Tikhonov — UBSH6 — position and weather

sailwx.info

Track history (hours):
 
Tides and Currents Weather Stations Pressure Air Temp Water Temp Dewpoint Dewpoint Depression Visibility Wind Speed Wind Dir Waves Ship Positions

Vyacheslav Tikhonov

Last reported at 2016-Aug-24 09:33 UTC. Time now 2016-Aug-24 10:12 UTC.
Position N 71°55' E 066°07'.

Length 84 m; draft 6.8 m.

Type: Other ship. MMSI: 273350140.

Date/timePositionNaut miles runAvg speedWind from/ knotsBaromVisibWave heightAir tempDewpointWater temp
2016-Aug-24 09:33N 71°55' E 066°07'4 4.1
2016-Aug-24 08:33N 71°57' E 065°55'4 3.7
2016-Aug-24 07:33N 71°53' E 065°56'4 3.7
2016-Aug-24 06:33N 71°50' E 066°02'6 3.1
2016-Aug-24 04:33N 71°56' E 066°06'3 3.5
2016-Aug-24 03:33N 71°60' E 066°04'4 3.8
2016-Aug-24 02:33N 72°03' E 066°01'5 4.6
2016-Aug-24 01:33N 72°08' E 065°57'5 5.4
2016-Aug-24 00:33N 72°13' E 065°56'5 4.9
2016-Aug-23 23:33N 72°18' E 065°51'4 3.1
2016-Aug-23 22:21N 72°15' E 065°44'3 3.3
2016-Aug-23 21:33N 72°12' E 065°47'3 3.4
2016-Aug-23 20:33N 72°09' E 065°44'5 4.7
2016-Aug-23 19:33N 72°09' E 065°29'9 1.4
2016-Aug-23 13:20N 72°18' E 065°33'2 0.0
2016-Aug-21 17:33N 72°16' E 065°34'4 4.4
2016-Aug-21 16:33N 72°12' E 065°38'4 4.1
2016-Aug-21 15:33N 72°08' E 065°42'4 4.0
2016-Aug-21 14:33N 72°04' E 065°45'5 4.9
2016-Aug-21 13:33N 71°59' E 065°49'5 5.0
2016-Aug-21 12:33N 71°55' E 065°53'5 5.1
2016-Aug-21 11:33N 71°50' E 065°57'5 5.0
2016-Aug-21 10:33N 71°45' E 066°01'5 5.1
2016-Aug-21 09:33N 71°40' E 066°05'5 5.1
2016-Aug-21 08:33N 71°35' E 066°09'5 5.2
2016-Aug-21 07:33N 71°30' E 066°13'5 5.1
2016-Aug-21 06:33N 71°25' E 066°17'4 4.4
2016-Aug-21 05:33N 71°21' E 066°25'4 3.8
2016-Aug-21 04:33N 71°25' E 066°31'5 4.5
2016-Aug-21 03:33N 71°29' E 066°27'5 4.9
2016-Aug-21 02:33N 71°34' E 066°24'5 5.1
2016-Aug-21 01:33N 71°39' E 066°20'5 5.1
2016-Aug-21 00:33N 71°44' E 066°16'5 5.1
2016-Aug-20 23:33N 71°49' E 066°12'5 5.1
2016-Aug-20 22:33N 71°54' E 066°08'5 5.0
2016-Aug-20 21:33N 71°59' E 066°04'5 5.1
2016-Aug-20 20:33N 72°03' E 065°60'5 4.6
2016-Aug-20 19:33N 72°07' E 065°52'4 4.1
2016-Aug-20 18:33N 72°04' E 065°45'5 5.1
2016-Aug-20 17:33N 71°59' E 065°49'5 5.1
2016-Aug-20 16:33N 71°54' E 065°53'5 5.0
2016-Aug-20 15:33N 71°49' E 065°57'5 4.8
2016-Aug-20 14:33N 71°45' E 066°01'5 4.8
2016-Aug-20 13:33N 71°40' E 066°04'5 4.8
2016-Aug-20 12:33N 71°35' E 066°08'5 4.8
2016-Aug-20 11:33N 71°31' E 066°12'5 4.8
2016-Aug-20 10:33N 71°26' E 066°15'5 4.7
2016-Aug-20 09:33N 71°21' E 066°20'3 3.4
2016-Aug-20 08:33N 71°23' E 066°30'5 4.6
2016-Aug-20 07:34N 71°28' E 066°28'5 4.6
2016-Aug-20 06:33N 71°32' E 066°24'5 4.6
2016-Aug-20 05:33N 71°36' E 066°21'5 5.0
2016-Aug-20 04:33N 71°41' E 066°17'5 5.0
2016-Aug-20 03:33N 71°46' E 066°13'5 5.0
2016-Aug-20 02:33N 71°51' E 066°09'5 5.1
2016-Aug-20 01:33N 71°56' E 066°05'5 5.1
2016-Aug-20 00:33N 72°01' E 066°01'5 5.2
2016-Aug-19 23:33N 72°06' E 065°57'4 3.9
2016-Aug-19 22:33N 72°07' E 065°45'4 4.5
2016-Aug-19 21:33N 72°02' E 065°46'5 4.7
2016-Aug-19 20:33N 71°58' E 065°50'5 4.8
2016-Aug-19 19:33N 71°53' E 065°53'5 4.9
2016-Aug-19 18:33N 71°48' E 065°57'5 5.0
2016-Aug-19 17:33N 71°43' E 066°01'5 5.0
2016-Aug-19 16:33N 71°38' E 066°05'5 5.1
2016-Aug-19 15:33N 71°34' E 066°09'5 5.1
2016-Aug-19 14:33N 71°29' E 066°13'5 5.1
2016-Aug-19 13:33N 71°24' E 066°17'4 3.9
2016-Aug-19 12:33N 71°22' E 066°27'5 4.8
2016-Aug-19 11:33N 71°27' E 066°28'5 5.1
2016-Aug-19 10:33N 71°31' E 066°24'5 5.0
2016-Aug-19 09:33N 71°36' E 066°20'5 5.0
2016-Aug-19 08:33N 71°41' E 066°16'5 5.0
2016-Aug-19 07:33N 71°46' E 066°12'5 5.1
2016-Aug-19 06:33N 71°51' E 066°08'5 5.1
2016-Aug-19 05:33N 71°56' E 066°04'5 4.8
2016-Aug-19 04:33N 72°01' E 066°00'5 4.8
2016-Aug-19 03:33N 72°05' E 065°57'4 4.1
2016-Aug-19 02:33N 72°07' E 065°45'5 4.6
2016-Aug-19 01:33N 72°03' E 065°44'5 5.0
2016-Aug-19 00:33N 71°58' E 065°48'5 4.8
2016-Aug-18 23:33N 71°53' E 065°52'5 4.7
2016-Aug-18 22:33N 71°49' E 065°56'5 4.7
2016-Aug-18 21:33N 71°44' E 065°60'5 4.7
2016-Aug-18 20:34N 71°40' E 066°03'5 4.8
2016-Aug-18 19:33N 71°35' E 066°07'5 4.8
2016-Aug-18 18:33N 71°30' E 066°11'5 4.9
2016-Aug-18 17:33N 71°25' E 066°15'4 4.4
2016-Aug-18 16:33N 71°22' E 066°22'4 4.0
2016-Aug-18 15:33N 71°25' E 066°28'5 4.7
2016-Aug-18 14:33N 71°30' E 066°25'5 4.9
2016-Aug-18 13:33N 71°35' E 066°21'5 5.0
2016-Aug-18 12:33N 71°39' E 066°17'5 5.1
2016-Aug-18 11:33N 71°44' E 066°13'5 5.1
2016-Aug-18 10:33N 71°49' E 066°09'5 5.1
2016-Aug-18 09:33N 71°54' E 066°05'5 5.2
2016-Aug-18 08:33N 71°59' E 066°01'5 5.0
2016-Aug-18 07:34N 72°04' E 065°57'5 4.9
2016-Aug-18 06:33N 72°08' E 065°50'3 3.4
2016-Aug-18 05:33N 72°06' E 065°40'5 4.5
2016-Aug-18 04:33N 72°02' E 065°44'5 4.8
2016-Aug-18 03:33N 71°57' E 065°48'5 4.8
2016-Aug-18 02:33N 71°53' E 065°52'5 4.9
2016-Aug-18 01:33N 71°48' E 065°56'5 4.9
2016-Aug-18 00:33N 71°43' E 065°60'5 4.9
2016-Aug-17 23:33N 71°39' E 066°03'5 4.9
2016-Aug-17 22:33N 71°34' E 066°07'5 4.9
2016-Aug-17 21:33N 71°29' E 066°11'5 4.6
2016-Aug-17 20:33N 71°25' E 066°15'4 3.9
2016-Aug-17 19:33N 71°22' E 066°23'4 4.4
2016-Aug-17 18:33N 71°26' E 066°27'5 5.1
2016-Aug-17 17:33N 71°31' E 066°23'5 5.0
2016-Aug-17 16:33N 71°36' E 066°19'5 5.0
2016-Aug-17 15:33N 71°40' E 066°16'5 5.0
2016-Aug-17 14:33N 71°45' E 066°11'5 4.9
2016-Aug-17 13:33N 71°50' E 066°08'5 4.8
2016-Aug-17 12:33N 71°55' E 066°04'5 4.9
2016-Aug-17 11:33N 71°59' E 066°00'5 4.9
2016-Aug-17 10:33N 72°04' E 065°56'5 4.9
2016-Aug-17 09:33N 72°09' E 065°52'4 3.7
2016-Aug-17 08:33N 72°11' E 065°42'4 3.8
2016-Aug-17 07:33N 72°07' E 065°39'4 4.5
2016-Aug-17 06:33N 72°03' E 065°43'5 4.9
2016-Aug-17 05:33N 71°58' E 065°47'5 4.5
2016-Aug-17 04:33N 71°54' E 065°50'4 4.5
2016-Aug-17 03:33N 71°50' E 065°54'5 4.9
2016-Aug-17 02:33N 71°45' E 065°58'5 5.1
2016-Aug-17 01:33N 71°40' E 066°02'5 5.1
2016-Aug-17 00:33N 71°35' E 066°06'5 5.2
2016-Aug-16 23:33N 71°30' E 066°10'5 5.2
2016-Aug-16 22:33N 71°25' E 066°14'5 4.7
2016-Aug-16 21:33N 71°20' E 066°13'3 3.2
2016-Aug-16 20:33N 71°19' E 066°23'4 4.4
2016-Aug-16 19:33N 71°23' E 066°27'5 4.8
2016-Aug-16 18:33N 71°28' E 066°25'5 5.1
2016-Aug-16 17:33N 71°33' E 066°21'5 5.2
2016-Aug-16 16:33N 71°38' E 066°17'5 5.2
2016-Aug-16 15:33N 71°43' E 066°13'5 4.9
2016-Aug-16 14:33N 71°48' E 066°09'5 4.8
2016-Aug-16 13:33N 71°53' E 066°05'5 4.8
2016-Aug-16 12:33N 71°57' E 066°01'5 4.8
2016-Aug-16 11:33N 72°02' E 065°57'5 4.6
2016-Aug-16 10:33N 72°06' E 065°54'5 4.7
2016-Aug-16 09:33N 72°11' E 065°50'3 3.4
2016-Aug-16 08:33N 72°11' E 065°39'17 4.2
2016-Aug-16 04:33N 71°54' E 065°49'5 4.7
2016-Aug-16 03:34N 71°50' E 065°53'5 5.0
2016-Aug-16 02:34N 71°45' E 065°57'5 5.0
2016-Aug-16 01:33N 71°40' E 066°01'5 5.0
2016-Aug-16 00:33N 71°35' E 066°05'5 5.0
2016-Aug-15 23:34N 71°30' E 066°09'5 5.0
2016-Aug-15 22:34N 71°25' E 066°13'5 4.7
2016-Aug-15 21:34N 71°21' E 066°19'4 4.0
2016-Aug-15 20:34N 71°24' E 066°27'5 4.9
2016-Aug-15 19:34N 71°29' E 066°23'5 4.9
2016-Aug-15 18:33N 71°34' E 066°19'5 5.1
2016-Aug-15 17:33N 71°39' E 066°15'5 5.2
2016-Aug-15 16:34N 71°44' E 066°11'5 5.1
2016-Aug-15 15:34N 71°49' E 066°07'5 5.1
2016-Aug-15 14:34N 71°54' E 066°03'5 5.0
2016-Aug-15 13:33N 71°59' E 065°59'5 5.0
2016-Aug-15 12:33N 72°04' E 065°55'5 4.8
2016-Aug-15 11:33N 72°08' E 065°50'4 3.6
2016-Aug-15 10:33N 72°09' E 065°38'5 4.6
2016-Aug-15 09:33N 72°04' E 065°40'5 5.1
2016-Aug-15 08:33N 71°59' E 065°44'5 5.0
2016-Aug-15 07:34N 71°54' E 065°49'5 5.0
2016-Aug-15 06:34N 71°50' E 065°53'10 4.8
2016-Aug-15 04:34N 71°40' E 065°60'5 4.9
2016-Aug-15 03:34N 71°36' E 066°04'5 5.0
2016-Aug-15 02:33N 71°31' E 066°07'6 4.8
2016-Aug-15 01:24N 71°25' E 066°12'4 4.7
2016-Aug-15 00:33N 71°22' E 066°17'4 3.5
2016-Aug-14 23:33N 71°24' E 066°26'4 4.5
2016-Aug-14 22:33N 71°28' E 066°23'5 4.6
2016-Aug-14 21:24N 71°33' E 066°19'24 5.0
2016-Aug-14 16:33N 71°57' E 066°00'5 5.1
2016-Aug-14 15:33N 72°02' E 065°56'5 5.2
2016-Aug-14 14:33N 72°07' E 065°50'4 4.1
2016-Aug-14 13:33N 72°05' E 065°39'5 4.7
2016-Aug-14 12:33N 71°60' E 065°43'5 4.8
2016-Aug-14 11:33N 71°55' E 065°47'5 5.1
2016-Aug-14 10:33N 71°50' E 065°51'5 4.9
2016-Aug-14 09:33N 71°46' E 065°55'  
Track history (hours):
 
Tides and Currents Weather Stations Pressure Air Temp Water Temp Dewpoint Dewpoint Depression Visibility Wind Speed Wind Dir Waves Ship Positions

Vyacheslav Tikhonov

Last reported at 2016-Aug-24 09:33 UTC. Time now 2016-Aug-24 10:12 UTC.
Position N 71°55' E 066°07'.

Length 84 m; draft 6.8 m.

Type: Other ship. MMSI: 273350140.

Date/timePositionNaut miles runAvg speedWind from/ knotsBaromVisibWave heightAir tempDewpointWater temp
2016-Aug-24 09:33N 71°55' E 066°07'4 4.1
2016-Aug-24 08:33N 71°57' E 065°55'4 3.7
2016-Aug-24 07:33N 71°53' E 065°56'4 3.7
2016-Aug-24 06:33N 71°50' E 066°02'6 3.1
2016-Aug-24 04:33N 71°56' E 066°06'3 3.5
2016-Aug-24 03:33N 71°60' E 066°04'4 3.8
2016-Aug-24 02:33N 72°03' E 066°01'5 4.6
2016-Aug-24 01:33N 72°08' E 065°57'5 5.4
2016-Aug-24 00:33N 72°13' E 065°56'5 4.9
2016-Aug-23 23:33N 72°18' E 065°51'4 3.1
2016-Aug-23 22:21N 72°15' E 065°44'3 3.3
2016-Aug-23 21:33N 72°12' E 065°47'3 3.4
2016-Aug-23 20:33N 72°09' E 065°44'5 4.7
2016-Aug-23 19:33N 72°09' E 065°29'9 1.4
2016-Aug-23 13:20N 72°18' E 065°33'2 0.0
2016-Aug-21 17:33N 72°16' E 065°34'4 4.4
2016-Aug-21 16:33N 72°12' E 065°38'4 4.1
2016-Aug-21 15:33N 72°08' E 065°42'4 4.0
2016-Aug-21 14:33N 72°04' E 065°45'5 4.9
2016-Aug-21 13:33N 71°59' E 065°49'5 5.0
2016-Aug-21 12:33N 71°55' E 065°53'5 5.1
2016-Aug-21 11:33N 71°50' E 065°57'5 5.0
2016-Aug-21 10:33N 71°45' E 066°01'5 5.1
2016-Aug-21 09:33N 71°40' E 066°05'5 5.1
2016-Aug-21 08:33N 71°35' E 066°09'5 5.2
2016-Aug-21 07:33N 71°30' E 066°13'5 5.1
2016-Aug-21 06:33N 71°25' E 066°17'4 4.4
2016-Aug-21 05:33N 71°21' E 066°25'4 3.8
2016-Aug-21 04:33N 71°25' E 066°31'5 4.5
2016-Aug-21 03:33N 71°29' E 066°27'5 4.9
2016-Aug-21 02:33N 71°34' E 066°24'5 5.1
2016-Aug-21 01:33N 71°39' E 066°20'5 5.1
2016-Aug-21 00:33N 71°44' E 066°16'5 5.1
2016-Aug-20 23:33N 71°49' E 066°12'5 5.1
2016-Aug-20 22:33N 71°54' E 066°08'5 5.0
2016-Aug-20 21:33N 71°59' E 066°04'5 5.1
2016-Aug-20 20:33N 72°03' E 065°60'5 4.6
2016-Aug-20 19:33N 72°07' E 065°52'4 4.1
2016-Aug-20 18:33N 72°04' E 065°45'5 5.1
2016-Aug-20 17:33N 71°59' E 065°49'5 5.1
2016-Aug-20 16:33N 71°54' E 065°53'5 5.0
2016-Aug-20 15:33N 71°49' E 065°57'5 4.8
2016-Aug-20 14:33N 71°45' E 066°01'5 4.8
2016-Aug-20 13:33N 71°40' E 066°04'5 4.8
2016-Aug-20 12:33N 71°35' E 066°08'5 4.8
2016-Aug-20 11:33N 71°31' E 066°12'5 4.8
2016-Aug-20 10:33N 71°26' E 066°15'5 4.7
2016-Aug-20 09:33N 71°21' E 066°20'3 3.4
2016-Aug-20 08:33N 71°23' E 066°30'5 4.6
2016-Aug-20 07:34N 71°28' E 066°28'5 4.6
2016-Aug-20 06:33N 71°32' E 066°24'5 4.6
2016-Aug-20 05:33N 71°36' E 066°21'5 5.0
2016-Aug-20 04:33N 71°41' E 066°17'5 5.0
2016-Aug-20 03:33N 71°46' E 066°13'5 5.0
2016-Aug-20 02:33N 71°51' E 066°09'5 5.1
2016-Aug-20 01:33N 71°56' E 066°05'5 5.1
2016-Aug-20 00:33N 72°01' E 066°01'5 5.2
2016-Aug-19 23:33N 72°06' E 065°57'4 3.9
2016-Aug-19 22:33N 72°07' E 065°45'4 4.5
2016-Aug-19 21:33N 72°02' E 065°46'5 4.7
2016-Aug-19 20:33N 71°58' E 065°50'5 4.8
2016-Aug-19 19:33N 71°53' E 065°53'5 4.9
2016-Aug-19 18:33N 71°48' E 065°57'5 5.0
2016-Aug-19 17:33N 71°43' E 066°01'5 5.0
2016-Aug-19 16:33N 71°38' E 066°05'5 5.1
2016-Aug-19 15:33N 71°34' E 066°09'5 5.1
2016-Aug-19 14:33N 71°29' E 066°13'5 5.1
2016-Aug-19 13:33N 71°24' E 066°17'4 3.9
2016-Aug-19 12:33N 71°22' E 066°27'5 4.8
2016-Aug-19 11:33N 71°27' E 066°28'5 5.1
2016-Aug-19 10:33N 71°31' E 066°24'5 5.0
2016-Aug-19 09:33N 71°36' E 066°20'5 5.0
2016-Aug-19 08:33N 71°41' E 066°16'5 5.0
2016-Aug-19 07:33N 71°46' E 066°12'5 5.1
2016-Aug-19 06:33N 71°51' E 066°08'5 5.1
2016-Aug-19 05:33N 71°56' E 066°04'5 4.8
2016-Aug-19 04:33N 72°01' E 066°00'5 4.8
2016-Aug-19 03:33N 72°05' E 065°57'4 4.1
2016-Aug-19 02:33N 72°07' E 065°45'5 4.6
2016-Aug-19 01:33N 72°03' E 065°44'5 5.0
2016-Aug-19 00:33N 71°58' E 065°48'5 4.8
2016-Aug-18 23:33N 71°53' E 065°52'5 4.7
2016-Aug-18 22:33N 71°49' E 065°56'5 4.7
2016-Aug-18 21:33N 71°44' E 065°60'5 4.7
2016-Aug-18 20:34N 71°40' E 066°03'5 4.8
2016-Aug-18 19:33N 71°35' E 066°07'5 4.8
2016-Aug-18 18:33N 71°30' E 066°11'5 4.9
2016-Aug-18 17:33N 71°25' E 066°15'4 4.4
2016-Aug-18 16:33N 71°22' E 066°22'4 4.0
2016-Aug-18 15:33N 71°25' E 066°28'5 4.7
2016-Aug-18 14:33N 71°30' E 066°25'5 4.9
2016-Aug-18 13:33N 71°35' E 066°21'5 5.0
2016-Aug-18 12:33N 71°39' E 066°17'5 5.1
2016-Aug-18 11:33N 71°44' E 066°13'5 5.1
2016-Aug-18 10:33N 71°49' E 066°09'5 5.1
2016-Aug-18 09:33N 71°54' E 066°05'5 5.2
2016-Aug-18 08:33N 71°59' E 066°01'5 5.0
2016-Aug-18 07:34N 72°04' E 065°57'5 4.9
2016-Aug-18 06:33N 72°08' E 065°50'3 3.4
2016-Aug-18 05:33N 72°06' E 065°40'5 4.5
2016-Aug-18 04:33N 72°02' E 065°44'5 4.8
2016-Aug-18 03:33N 71°57' E 065°48'5 4.8
2016-Aug-18 02:33N 71°53' E 065°52'5 4.9
2016-Aug-18 01:33N 71°48' E 065°56'5 4.9
2016-Aug-18 00:33N 71°43' E 065°60'5 4.9
2016-Aug-17 23:33N 71°39' E 066°03'5 4.9
2016-Aug-17 22:33N 71°34' E 066°07'5 4.9
2016-Aug-17 21:33N 71°29' E 066°11'5 4.6
2016-Aug-17 20:33N 71°25' E 066°15'4 3.9
2016-Aug-17 19:33N 71°22' E 066°23'4 4.4
2016-Aug-17 18:33N 71°26' E 066°27'5 5.1
2016-Aug-17 17:33N 71°31' E 066°23'5 5.0
2016-Aug-17 16:33N 71°36' E 066°19'5 5.0
2016-Aug-17 15:33N 71°40' E 066°16'5 5.0
2016-Aug-17 14:33N 71°45' E 066°11'5 4.9
2016-Aug-17 13:33N 71°50' E 066°08'5 4.8
2016-Aug-17 12:33N 71°55' E 066°04'5 4.9
2016-Aug-17 11:33N 71°59' E 066°00'5 4.9
2016-Aug-17 10:33N 72°04' E 065°56'5 4.9
2016-Aug-17 09:33N 72°09' E 065°52'4 3.7
2016-Aug-17 08:33N 72°11' E 065°42'4 3.8
2016-Aug-17 07:33N 72°07' E 065°39'4 4.5
2016-Aug-17 06:33N 72°03' E 065°43'5 4.9
2016-Aug-17 05:33N 71°58' E 065°47'5 4.5
2016-Aug-17 04:33N 71°54' E 065°50'4 4.5
2016-Aug-17 03:33N 71°50' E 065°54'5 4.9
2016-Aug-17 02:33N 71°45' E 065°58'5 5.1
2016-Aug-17 01:33N 71°40' E 066°02'5 5.1
2016-Aug-17 00:33N 71°35' E 066°06'5 5.2
2016-Aug-16 23:33N 71°30' E 066°10'5 5.2
2016-Aug-16 22:33N 71°25' E 066°14'5 4.7
2016-Aug-16 21:33N 71°20' E 066°13'3 3.2
2016-Aug-16 20:33N 71°19' E 066°23'4 4.4
2016-Aug-16 19:33N 71°23' E 066°27'5 4.8
2016-Aug-16 18:33N 71°28' E 066°25'5 5.1
2016-Aug-16 17:33N 71°33' E 066°21'5 5.2
2016-Aug-16 16:33N 71°38' E 066°17'5 5.2
2016-Aug-16 15:33N 71°43' E 066°13'5 4.9
2016-Aug-16 14:33N 71°48' E 066°09'5 4.8
2016-Aug-16 13:33N 71°53' E 066°05'5 4.8
2016-Aug-16 12:33N 71°57' E 066°01'5 4.8
2016-Aug-16 11:33N 72°02' E 065°57'5 4.6
2016-Aug-16 10:33N 72°06' E 065°54'5 4.7
2016-Aug-16 09:33N 72°11' E 065°50'3 3.4
2016-Aug-16 08:33N 72°11' E 065°39'17 4.2
2016-Aug-16 04:33N 71°54' E 065°49'5 4.7
2016-Aug-16 03:34N 71°50' E 065°53'5 5.0
2016-Aug-16 02:34N 71°45' E 065°57'5 5.0
2016-Aug-16 01:33N 71°40' E 066°01'5 5.0
2016-Aug-16 00:33N 71°35' E 066°05'5 5.0
2016-Aug-15 23:34N 71°30' E 066°09'5 5.0
2016-Aug-15 22:34N 71°25' E 066°13'5 4.7
2016-Aug-15 21:34N 71°21' E 066°19'4 4.0
2016-Aug-15 20:34N 71°24' E 066°27'5 4.9
2016-Aug-15 19:34N 71°29' E 066°23'5 4.9
2016-Aug-15 18:33N 71°34' E 066°19'5 5.1
2016-Aug-15 17:33N 71°39' E 066°15'5 5.2
2016-Aug-15 16:34N 71°44' E 066°11'5 5.1
2016-Aug-15 15:34N 71°49' E 066°07'5 5.1
2016-Aug-15 14:34N 71°54' E 066°03'5 5.0
2016-Aug-15 13:33N 71°59' E 065°59'5 5.0
2016-Aug-15 12:33N 72°04' E 065°55'5 4.8
2016-Aug-15 11:33N 72°08' E 065°50'4 3.6
2016-Aug-15 10:33N 72°09' E 065°38'5 4.6
2016-Aug-15 09:33N 72°04' E 065°40'5 5.1
2016-Aug-15 08:33N 71°59' E 065°44'5 5.0
2016-Aug-15 07:34N 71°54' E 065°49'5 5.0
2016-Aug-15 06:34N 71°50' E 065°53'10 4.8
2016-Aug-15 04:34N 71°40' E 065°60'5 4.9
2016-Aug-15 03:34N 71°36' E 066°04'5 5.0
2016-Aug-15 02:33N 71°31' E 066°07'6 4.8
2016-Aug-15 01:24N 71°25' E 066°12'4 4.7
2016-Aug-15 00:33N 71°22' E 066°17'4 3.5
2016-Aug-14 23:33N 71°24' E 066°26'4 4.5
2016-Aug-14 22:33N 71°28' E 066°23'5 4.6
2016-Aug-14 21:24N 71°33' E 066°19'24 5.0
2016-Aug-14 16:33N 71°57' E 066°00'5 5.1
2016-Aug-14 15:33N 72°02' E 065°56'5 5.2
2016-Aug-14 14:33N 72°07' E 065°50'4 4.1
2016-Aug-14 13:33N 72°05' E 065°39'5 4.7
2016-Aug-14 12:33N 71°60' E 065°43'5 4.8
2016-Aug-14 11:33N 71°55' E 065°47'5 5.1
2016-Aug-14 10:33N 71°50' E 065°51'5 4.9
2016-Aug-14 09:33N 71°46' E 065°55'  

Dump ship's entire track history